»·PEaware :: DAL470 KSEA-KPDX

DAL470 :: KSEA-KPDX

FLIGHT INFORMATION

Flight Status: Arrived
Operator:
Delta Air Lines
More flights by this operator :: More flights under this callsign
Pilot: Maximilliano F. (23467)
Aircraft: BOEING 737-800
(B738)
More flights by this aircraft type
Origin: KSEA Seattle-Tacoma Intl
United States
Destination: KPDX Portland Intl
United States
More flights between these airports :: More routes between these airports
Route: +SEA7 BUWZO KRATR2
File this flight plan on PilotEdge
Remarks: RMK / SIMBRIEF
Altitude:
(Current/Filed)
21,000ft
Speed:
(Current/Filed)
408kts
Departed: 09-Sep-19 04:56 PM
Arrived: 09-Sep-19 05:23 PM
Distance/Time
Traveled:
112nm/0:27
Distance/Time
To Go:
Arrived

Flight Plot

Page will automatically refresh every two minutes.

Flight plan parsing failed; only flown route is shown


Map Options




Map Legend


Flown Route
Filed Route
Departure Airport
Arrival Airport
Navaid (VOR, NDB)
Fix

Horizontal Profiles

Position Reports

Time Latitude Longitude Heading Altitude Ground
Speed
09-Sep-19 16:20 47.438660 -122.300610 279 434ft 0kts
09-Sep-19 16:21 47.438660 -122.300610 279 434ft 0kts
09-Sep-19 16:22 47.438660 -122.300610 279 434ft 0kts
09-Sep-19 16:24 47.438660 -122.300610 279 434ft 0kts
09-Sep-19 16:25 47.438660 -122.300610 279 434ft 0kts
09-Sep-19 16:26 47.438660 -122.300610 279 434ft 0kts
09-Sep-19 16:27 47.438660 -122.300610 279 434ft 0kts
09-Sep-19 16:28 47.438660 -122.300610 279 434ft 0kts
09-Sep-19 16:29 47.438660 -122.300610 279 434ft 0kts
09-Sep-19 16:30 47.438660 -122.300610 279 434ft 0kts
09-Sep-19 16:31 47.438660 -122.300610 279 434ft 0kts
09-Sep-19 16:32 47.438660 -122.300610 279 434ft 0kts
09-Sep-19 16:33 47.438660 -122.300610 279 434ft 0kts
09-Sep-19 16:34 47.438660 -122.300610 279 434ft 0kts
09-Sep-19 16:35 47.438660 -122.300610 279 434ft 0kts
09-Sep-19 16:36 47.438660 -122.300610 279 434ft 0kts
09-Sep-19 16:37 47.438660 -122.300610 279 434ft 0kts
09-Sep-19 16:38 47.438660 -122.300610 279 434ft 0kts
09-Sep-19 16:39 47.438653 -122.300545 279 434ft 2kts
09-Sep-19 16:40 47.438645 -122.299766 222 434ft 2kts
09-Sep-19 16:41 47.438753 -122.299674 205 434ft 0kts
09-Sep-19 16:42 47.438753 -122.299674 205 434ft 0kts
09-Sep-19 16:42 47.438689 -122.299719 205 434ft 2kts
09-Sep-19 16:44 47.438651 -122.299752 214 434ft 1kts
09-Sep-19 16:45 47.437908 -122.301470 238 434ft 5kts
09-Sep-19 16:45 47.437675 -122.303640 281 434ft 5kts
09-Sep-19 16:47 47.438407 -122.305336 324 434ft 10kts
09-Sep-19 16:48 47.442835 -122.306345 1 434ft 21kts
09-Sep-19 16:48 47.447600 -122.306313 2 434ft 19kts
09-Sep-19 16:50 47.455622 -122.306229 0 434ft 29kts
09-Sep-19 16:50 47.462138 -122.306175 0 434ft 26kts
09-Sep-19 16:51 47.463538 -122.306305 324 434ft 0kts
09-Sep-19 16:52 47.463538 -122.306305 324 434ft 0kts
09-Sep-19 16:53 47.463538 -122.306305 324 434ft 0kts
09-Sep-19 16:54 47.463821 -122.307297 243 434ft 5kts
09-Sep-19 16:55 47.446118 -122.307919 180 449ft 181kts
09-Sep-19 16:56 47.396609 -122.294634 176 3136ft 208kts
09-Sep-19 16:57 47.328074 -122.295515 183 6174ft 265kts
09-Sep-19 16:58 47.252524 -122.298364 183 9929ft 282kts
09-Sep-19 16:59 47.166317 -122.301654 182 12822ft 329kts
09-Sep-19 17:00 47.072500 -122.305170 182 15028ft 353kts
09-Sep-19 17:01 46.974214 -122.308808 182 18682ft 359kts
09-Sep-19 17:02 46.872126 -122.309662 181 20952ft 389kts
09-Sep-19 17:03 46.763473 -122.309616 181 20952ft 389kts
09-Sep-19 17:04 46.655825 -122.309612 181 20952ft 383kts
09-Sep-19 17:05 46.549432 -122.309613 181 20953ft 382kts
09-Sep-19 17:06 46.442697 -122.309615 181 20062ft 389kts
09-Sep-19 17:07 46.330451 -122.309609 181 15694ft 414kts
09-Sep-19 17:08 46.227483 -122.327557 199 14320ft 347kts
09-Sep-19 17:09 46.140673 -122.374490 202 12855ft 302kts
09-Sep-19 17:10 46.066354 -122.415567 201 11479ft 281kts
09-Sep-19 17:11 45.994248 -122.454346 202 9775ft 273kts
09-Sep-19 17:12 45.926191 -122.496955 217 8099ft 263kts
09-Sep-19 17:13 45.870769 -122.564520 222 6455ft 254kts
09-Sep-19 17:14 45.820194 -122.628400 222 5432ft 225kts
09-Sep-19 17:15 45.775981 -122.685243 227 4950ft 219kts
09-Sep-19 17:16 45.744356 -122.757507 244 4225ft 211kts
09-Sep-19 17:17 45.710062 -122.807253 160 2961ft 198kts
09-Sep-19 17:18 45.663871 -122.776224 125 1986ft 174kts
09-Sep-19 17:19 45.640804 -122.713887 120 1930ft 180kts
09-Sep-19 17:20 45.619024 -122.657813 120 1040ft 155kts
09-Sep-19 17:21 45.598287 -122.604148 120 171ft 154kts
09-Sep-19 17:22 45.586293 -122.576364 214 37ft 8kts
09-Sep-19 17:23 45.587748 -122.580758 298 37ft 17kts
09-Sep-19 17:24 45.590283 -122.588829 269 37ft 17kts
09-Sep-19 17:25 45.591799 -122.593351 272 37ft 2kts
09-Sep-19 17:26 45.591149 -122.594075 208 37ft 0kts

Navigation Log

Ident Type
Flight plan parsing failed, navigation log unavailable